createdAt,value
2023-03-23T15:58:46.422Z,2.33
2023-03-23T16:01:26.026Z,2.67
2023-03-23T16:04:00.232Z,3.35
2023-03-23T16:06:30.084Z,3.97
2023-03-23T16:08:57.359Z,3.65
2023-03-23T16:11:27.000Z,2.20
2023-03-23T16:13:54.418Z,2.88
2023-03-23T16:16:33.916Z,2.92
2023-03-23T16:19:00.728Z,1.73
2023-03-23T16:21:27.564Z,6.60
2023-03-23T16:26:21.089Z,3.83
2023-03-23T16:31:14.575Z,2.20
2023-03-23T16:33:41.510Z,4.00
2023-03-23T16:38:49.590Z,2.25
2023-03-23T16:41:17.148Z,2.92
2023-03-23T16:43:44.315Z,2.72
2023-03-23T16:46:13.398Z,1.95
2023-03-23T16:48:40.513Z,1.75
2023-03-23T16:51:07.380Z,3.30
2023-03-23T16:56:00.938Z,2.63
2023-03-23T17:00:54.942Z,5.78
2023-03-23T17:05:51.419Z,3.15
2023-03-23T17:08:19.360Z,2.00
2023-03-23T17:10:46.950Z,1.63
2023-03-23T17:13:14.145Z,4.70
2023-03-23T17:15:45.309Z,2.20
2023-03-23T17:18:14.386Z,2.38
2023-03-23T17:20:41.192Z,1.88
2023-03-23T17:25:34.778Z,2.42
2023-03-23T17:28:05.067Z,2.50
2023-03-23T17:30:33.018Z,3.08
2023-03-23T17:35:26.500Z,2.50
2023-03-23T17:37:53.341Z,3.67
2023-03-23T17:40:20.442Z,4.68
2023-03-23T17:42:47.169Z,3.42
2023-03-23T17:45:13.891Z,1.77
2023-03-23T17:47:40.838Z,2.40
2023-03-23T17:50:12.311Z,2.70
2023-03-23T17:52:40.593Z,3.70
2023-03-23T17:55:08.247Z,2.35
2023-03-23T17:57:35.433Z,2.67
2023-03-23T18:00:04.224Z,1.85
2023-03-23T18:02:33.944Z,2.28
2023-03-23T18:05:00.881Z,4.45
2023-03-23T18:09:59.188Z,2.95
2023-03-23T18:12:26.111Z,5.22
2023-03-23T18:14:59.404Z,4.63
2023-03-23T18:17:26.927Z,2.03
2023-03-23T18:19:54.473Z,3.78
2023-03-23T18:22:21.477Z,2.80
2023-03-23T18:24:48.432Z,3.35
2023-03-23T18:29:42.593Z,2.97
2023-03-23T18:32:09.410Z,2.88
2023-03-23T18:37:04.468Z,2.88
2023-03-23T18:39:34.074Z,1.52
2023-03-23T18:42:01.117Z,1.88
2023-03-23T18:44:27.919Z,3.15
2023-03-23T18:46:54.651Z,3.50
2023-03-23T18:49:21.385Z,3.38
2023-03-23T18:51:48.433Z,3.88
2023-03-23T18:54:17.219Z,3.78
2023-03-23T18:56:44.228Z,3.22
2023-03-23T18:59:11.306Z,4.05
2023-03-23T19:01:38.194Z,4.53
2023-03-23T19:06:34.845Z,3.65
2023-03-23T19:09:02.190Z,3.40
2023-03-23T19:11:29.136Z,3.92
2023-03-23T19:16:38.175Z,2.85
2023-03-23T19:19:08.186Z,2.53
2023-03-23T19:21:35.514Z,2.53
2023-03-23T19:24:03.145Z,1.83
2023-03-23T19:26:37.691Z,4.03
2023-03-23T19:31:43.286Z,2.03
2023-03-23T19:34:12.316Z,1.83
2023-03-23T19:36:39.794Z,2.78
2023-03-23T19:39:08.730Z,5.53
2023-03-23T19:41:36.792Z,1.88
2023-03-23T19:44:04.629Z,2.70
2023-03-23T19:46:32.411Z,3.42
2023-03-23T19:48:59.466Z,1.58
2023-03-23T19:51:27.133Z,2.95
2023-03-23T19:53:57.171Z,3.65
2023-03-23T19:56:24.544Z,3.50
2023-03-23T19:58:51.963Z,1.63
2023-03-23T20:01:18.921Z,2.90
2023-03-23T20:03:45.900Z,2.53
2023-03-23T20:06:15.082Z,4.70
2023-03-23T20:08:45.459Z,2.38
2023-03-23T20:11:15.315Z,3.22
2023-03-23T20:13:42.133Z,3.03
2023-03-23T20:16:09.634Z,3.17
2023-03-23T20:18:37.934Z,3.50
2023-03-23T20:21:07.759Z,3.20
2023-03-23T20:23:35.711Z,2.72
2023-03-23T20:26:06.684Z,3.83
2023-03-23T20:28:33.951Z,3.67
2023-03-23T20:31:19.049Z,4.18
2023-03-23T20:34:00.716Z,3.70
2023-03-23T20:36:34.325Z,5.20
2023-03-23T20:39:05.516Z,6.07
2023-03-23T20:41:35.884Z,4.40
2023-03-23T20:44:03.894Z,8.25
2023-03-23T20:46:30.903Z,6.43
2023-03-23T20:48:58.156Z,4.93
2023-03-23T20:51:25.667Z,3.80
2023-03-23T20:53:53.179Z,4.97
2023-03-23T20:56:20.311Z,5.65
2023-03-23T20:58:47.610Z,4.65
2023-03-23T21:01:14.945Z,10.07
2023-03-23T21:03:42.375Z,9.63
2023-03-23T21:06:10.077Z,8.50
2023-03-23T21:08:39.350Z,8.60
2023-03-23T21:11:08.444Z,6.30
2023-03-23T21:13:36.341Z,7.25
2023-03-23T21:16:04.145Z,5.88
2023-03-23T21:18:31.860Z,5.80
2023-03-23T21:21:00.283Z,6.22
2023-03-23T21:23:29.479Z,7.88
2023-03-23T21:26:01.177Z,5.38
2023-03-23T21:28:28.577Z,5.97
2023-03-23T21:31:00.933Z,5.10
2023-03-23T21:33:27.916Z,6.07
2023-03-23T21:35:54.779Z,5.07
2023-03-23T21:38:26.006Z,6.38
2023-03-23T21:40:54.534Z,4.82
2023-03-23T21:43:27.158Z,5.07
2023-03-23T21:46:02.754Z,5.60
2023-03-23T21:48:29.992Z,5.88
2023-03-23T21:50:57.060Z,5.65
2023-03-23T21:53:25.411Z,5.63
2023-03-23T21:55:52.850Z,6.68
2023-03-23T21:58:23.426Z,4.93
2023-03-23T22:00:53.968Z,4.88
2023-03-23T22:03:23.339Z,4.53
2023-03-23T22:05:54.515Z,6.57
2023-03-23T22:08:27.453Z,5.00
2023-03-23T22:11:01.836Z,5.63
2023-03-23T22:13:34.573Z,7.25
2023-03-23T22:16:13.430Z,5.65
2023-03-23T22:18:43.426Z,4.75
2023-03-23T22:21:11.645Z,6.00
2023-03-23T22:23:39.345Z,6.05
2023-03-23T22:26:07.626Z,6.18
2023-03-23T22:28:37.128Z,5.35
2023-03-23T22:31:17.391Z,7.55
2023-03-23T22:33:46.080Z,8.50
2023-03-23T22:36:12.946Z,6.85
2023-03-23T22:41:10.906Z,6.93
2023-03-23T22:43:38.445Z,4.95
2023-03-23T22:46:05.961Z,5.93
2023-03-23T22:48:33.231Z,4.30
2023-03-23T22:51:00.354Z,5.40
2023-03-23T22:53:29.858Z,5.03
2023-03-23T22:55:57.630Z,4.72
2023-03-23T22:58:26.583Z,4.53
2023-03-23T23:01:00.730Z,5.25
2023-03-23T23:03:29.579Z,5.30
2023-03-23T23:05:57.946Z,5.95
2023-03-23T23:08:26.550Z,4.82
2023-03-23T23:10:56.176Z,6.13
2023-03-23T23:13:23.842Z,7.30
2023-03-23T23:15:53.860Z,7.15
2023-03-23T23:18:21.497Z,5.20
2023-03-23T23:20:50.584Z,5.07
2023-03-23T23:23:17.972Z,6.40
2023-03-23T23:25:45.962Z,5.88
2023-03-23T23:28:12.841Z,4.55
2023-03-23T23:33:07.599Z,7.55
2023-03-23T23:35:36.980Z,6.85
2023-03-23T23:38:07.565Z,5.60
2023-03-23T23:40:35.399Z,5.07
2023-03-23T23:43:03.245Z,4.55
2023-03-23T23:45:31.103Z,4.93
2023-03-23T23:47:58.677Z,5.28
2023-03-23T23:50:26.220Z,7.05
2023-03-23T23:52:56.284Z,6.50
2023-03-23T23:55:23.214Z,4.75
